Time;durP1;ratioP1;P1;durP2;ratioP2;P2;SDS_P1;SDS_P2;PMS_P1;PMS_P2;Temp;Humidity;BMP_temperature;BMP_pressure;BME280_temperature;BME280_humidity;BME280_pressure;Samples;Min_cycle;Max_cycle;Signal;HPM_P1;HPM_P2
2022/04/01 00:01:11;;;;;;;2.90;1.70;;;0.80;99.90;;;;;;4952090;29;20095;-81
2022/04/01 00:03:37;;;;;;;3.90;2.23;;;0.80;99.90;;;;;;4950412;29;20047;-81
2022/04/01 00:06:02;;;;;;;4.17;1.73;;;0.80;99.90;;;;;;4951308;28;20051;-81
2022/04/01 00:08:28;;;;;;;4.13;1.90;;;0.80;99.90;;;;;;4953562;28;20086;-81
2022/04/01 00:10:53;;;;;;;4.10;1.50;;;0.80;99.90;;;;;;4953610;28;20043;-82
2022/04/01 00:13:19;;;;;;;3.23;1.40;;;0.80;99.90;;;;;;4952226;29;20035;-81
2022/04/01 00:15:45;;;;;;;3.53;1.40;;;0.80;99.90;;;;;;4953802;28;20168;-81
2022/04/01 00:18:11;;;;;;;4.17;1.60;;;0.80;99.90;;;;;;4953482;28;20039;-81
2022/04/01 00:20:37;;;;;;;1.60;1.20;;;0.80;99.90;;;;;;4952235;29;20401;-82
2022/04/01 00:23:03;;;;;;;4.00;1.63;;;0.80;99.90;;;;;;4952208;28;20066;-82
2022/04/01 00:25:28;;;;;;;4.63;1.40;;;0.80;99.90;;;;;;4953270;28;20524;-81
2022/04/01 00:27:54;;;;;;;3.90;1.43;;;0.80;99.90;;;;;;4953311;28;20039;-82
2022/04/01 00:30:20;;;;;;;4.83;1.37;;;0.80;99.90;;;;;;4952597;28;20581;-81
2022/04/01 00:32:46;;;;;;;3.50;1.50;;;0.80;99.90;;;;;;4952011;29;20043;-81
2022/04/01 00:35:11;;;;;;;2.90;1.97;;;0.80;99.90;;;;;;4951817;28;20502;-82
2022/04/01 00:37:38;;;;;;;2.57;1.40;;;0.80;99.90;;;;;;4951946;29;20039;-81
2022/04/01 00:40:04;;;;;;;3.57;1.60;;;0.80;99.90;;;;;;4952220;29;20379;-82
2022/04/01 00:42:30;;;;;;;3.43;1.50;;;0.80;99.90;;;;;;4953308;28;20058;-82
2022/04/01 00:44:58;;;;;;;3.90;1.60;;;0.80;99.90;;;;;;4953053;28;20047;-82
2022/04/01 00:47:24;;;;;;;3.13;1.63;;;0.80;99.90;;;;;;4951736;28;20043;-82
2022/04/01 00:49:50;;;;;;;2.67;1.47;;;0.80;99.90;;;;;;4951943;28;20521;-81
2022/04/01 00:52:17;;;;;;;2.90;1.60;;;1.40;99.90;;;;;;4951777;29;20082;-82
2022/04/01 00:54:43;;;;;;;5.97;1.70;;;0.80;99.90;;;;;;4952771;28;20047;-83
2022/04/01 00:57:11;;;;;;;3.43;1.70;;;0.80;99.90;;;;;;4952037;28;20363;-82
2022/04/01 00:59:37;;;;;;;2.53;1.60;;;0.80;99.90;;;;;;4951691;29;20089;-83
2022/04/01 01:02:04;;;;;;;5.43;1.80;;;0.80;99.90;;;;;;4951727;29;20510;-83
2022/04/01 01:04:30;;;;;;;4.27;1.60;;;0.80;99.90;;;;;;4951533;29;20084;-83
2022/04/01 01:06:57;;;;;;;1.93;1.20;;;0.80;99.90;;;;;;4951956;28;20406;-83
2022/04/01 01:09:25;;;;;;;2.20;1.50;;;0.80;99.90;;;;;;4935649;29;20043;-82
2022/04/01 01:11:52;;;;;;;4.53;1.47;;;1.20;99.90;;;;;;4951340;28;20075;-82
2022/04/01 01:14:24;;;;;;;3.67;1.90;;;0.90;99.90;;;;;;4953567;28;20413;-82
2022/04/01 01:16:50;;;;;;;3.63;1.37;;;0.80;99.90;;;;;;4955315;29;20047;-81
2022/04/01 01:19:16;;;;;;;3.53;1.60;;;0.80;99.90;;;;;;4956529;28;20070;-82
2022/04/01 01:21:44;;;;;;;4.90;2.23;;;0.80;99.90;;;;;;4955029;29;20047;-82
2022/04/01 01:24:12;;;;;;;3.40;1.40;;;0.80;99.90;;;;;;4954838;28;20042;-82
2022/04/01 01:26:38;;;;;;;4.30;1.50;;;0.80;99.90;;;;;;4956294;28;20512;-82
2022/04/01 01:29:06;;;;;;;2.10;1.43;;;0.90;99.90;;;;;;4955028;28;20043;-82
2022/04/01 01:31:32;;;;;;;3.63;1.47;;;0.90;99.90;;;;;;4955015;29;20039;-82
2022/04/01 01:33:58;;;;;;;5.53;1.37;;;0.90;99.90;;;;;;4954771;28;20059;-81
2022/04/01 01:36:26;;;;;;;4.63;1.40;;;0.90;99.90;;;;;;4956262;28;20472;-82
2022/04/01 01:38:51;;;;;;;3.13;1.57;;;0.90;99.90;;;;;;4956052;28;20039;-83
2022/04/01 01:41:17;;;;;;;3.80;1.60;;;0.90;99.90;;;;;;4954718;29;20057;-82
2022/04/01 01:43:43;;;;;;;7.60;1.80;;;0.90;99.90;;;;;;4954631;28;20122;-81
2022/04/01 01:46:10;;;;;;;4.13;1.70;;;1.30;99.90;;;;;;4954655;28;20043;-83
2022/04/01 01:48:36;;;;;;;3.83;1.77;;;1.00;99.90;;;;;;4954522;29;20100;-82
2022/04/01 01:56:31;;;;;;;2.22;1.60;;;1.00;99.90;;;;;;4955736;28;20079;-83
2022/04/01 01:58:57;;;;;;;4.60;1.40;;;1.00;99.90;;;;;;4955530;28;20035;-82
2022/04/01 02:01:23;;;;;;;5.83;1.43;;;1.00;99.90;;;;;;4955770;28;20110;-82
2022/04/01 02:03:49;;;;;;;4.23;1.50;;;1.50;99.90;;;;;;4954278;29;20408;-82
2022/04/01 02:06:15;;;;;;;4.20;1.30;;;1.00;99.90;;;;;;4955614;28;20090;-82
2022/04/01 02:08:41;;;;;;;4.47;1.80;;;1.00;99.90;;;;;;4955568;28;20413;-82
2022/04/01 02:11:07;;;;;;;6.03;1.80;;;1.00;99.90;;;;;;4953341;29;20046;-81
2022/04/01 02:13:34;;;;;;;3.23;1.57;;;1.00;99.90;;;;;;4954223;29;20043;-82
2022/04/01 02:16:00;;;;;;;3.13;1.37;;;1.00;99.90;;;;;;4953988;28;20048;-82
2022/04/01 02:18:26;;;;;;;2.57;1.43;;;1.00;99.90;;;;;;4954114;28;20043;-82
2022/04/01 02:20:52;;;;;;;3.33;1.60;;;1.10;99.90;;;;;;4955352;28;20043;-82
2022/04/01 02:23:17;;;;;;;3.93;1.80;;;1.10;99.90;;;;;;4953863;28;20572;-81
2022/04/01 02:25:44;;;;;;;3.87;1.70;;;1.00;99.90;;;;;;4953345;28;20118;-82
2022/04/01 02:28:12;;;;;;;2.47;1.33;;;1.10;99.90;;;;;;4954008;29;20085;-81
2022/04/01 02:30:38;;;;;;;8.07;1.63;;;1.10;99.90;;;;;;4955216;28;20429;-81
2022/04/01 02:33:06;;;;;;;3.03;1.57;;;1.10;99.90;;;;;;4955207;28;20098;-81
2022/04/01 02:35:33;;;;;;;4.57;1.40;;;1.10;99.90;;;;;;4954734;28;20379;-81
2022/04/01 02:37:59;;;;;;;3.37;1.40;;;1.10;99.90;;;;;;4953751;29;20043;-82
2022/04/01 02:40:25;;;;;;;2.60;1.50;;;1.10;99.90;;;;;;4955162;28;20071;-83
2022/04/01 02:42:53;;;;;;;3.40;1.30;;;1.10;99.90;;;;;;4955014;28;20039;-81
2022/04/01 02:45:21;;;;;;;5.43;1.80;;;1.00;99.90;;;;;;4953621;29;20047;-81
2022/04/01 02:47:47;;;;;;;4.03;1.40;;;1.00;99.90;;;;;;4954896;28;20047;-81
2022/04/01 02:50:13;;;;;;;3.03;1.67;;;1.10;99.90;;;;;;4954835;28;20146;-81
2022/04/01 02:52:39;;;;;;;4.43;1.73;;;1.00;99.90;;;;;;4953944;29;20039;-81
2022/04/01 02:55:05;;;;;;;6.07;1.60;;;1.00;99.90;;;;;;4953305;29;20043;-81
2022/04/01 02:57:31;;;;;;;3.50;1.60;;;1.00;99.90;;;;;;4954780;28;20049;-82
2022/04/01 02:59:56;;;;;;;4.67;1.90;;;1.00;99.90;;;;;;4954702;28;20043;-81
2022/04/01 03:02:22;;;;;;;4.40;1.73;;;1.10;99.90;;;;;;4953293;28;20043;-81
2022/04/01 03:04:48;;;;;;;5.70;1.70;;;1.10;99.90;;;;;;4954251;28;20577;-82
2022/04/01 03:07:13;;;;;;;5.30;1.50;;;1.00;99.90;;;;;;4954629;28;20074;-82
2022/04/01 03:09:39;;;;;;;6.27;2.00;;;1.10;99.90;;;;;;4954419;28;20036;-81
2022/04/01 03:12:07;;;;;;;4.10;1.40;;;1.10;99.90;;;;;;4954687;28;20448;-83
2022/04/01 03:14:32;;;;;;;3.90;1.33;;;1.10;99.90;;;;;;4952863;29;20051;-82
2022/04/01 03:16:58;;;;;;;3.30;1.43;;;1.10;99.90;;;;;;4953086;29;20418;-82
2022/04/01 03:19:24;;;;;;;3.13;1.43;;;1.20;99.90;;;;;;4952808;29;20509;-82
2022/04/01 03:21:50;;;;;;;3.40;1.40;;;1.10;99.90;;;;;;4954459;28;20043;-82
2022/04/01 03:24:16;;;;;;;3.67;1.40;;;1.20;99.90;;;;;;4952733;29;20040;-82
2022/04/01 03:26:42;;;;;;;2.37;1.37;;;1.70;99.90;;;;;;4952278;28;20054;-81
2022/04/01 03:29:08;;;;;;;5.73;1.50;;;1.20;99.90;;;;;;4952791;29;20047;-82
2022/04/01 03:31:35;;;;;;;6.20;1.77;;;1.20;99.90;;;;;;4954118;28;20382;-82
2022/04/01 03:34:01;;;;;;;4.07;1.50;;;1.20;99.90;;;;;;4952621;28;20114;-82
2022/04/01 03:36:26;;;;;;;2.47;1.20;;;1.10;99.90;;;;;;4952285;28;20174;-82
2022/04/01 03:38:52;;;;;;;4.03;1.30;;;1.10;99.90;;;;;;4953846;28;20118;-82
2022/04/01 03:41:19;;;;;;;3.47;1.30;;;1.20;99.90;;;;;;4952723;29;20050;-82
2022/04/01 03:43:45;;;;;;;4.47;1.30;;;1.10;99.90;;;;;;4952527;29;20047;-82
2022/04/01 03:46:13;;;;;;;6.30;1.40;;;1.10;99.90;;;;;;4952707;28;20047;-82
2022/04/01 03:49:05;;;;;;;2.87;1.40;;;1.20;99.90;;;;;;4953785;28;20489;-82
2022/04/01 03:51:31;;;;;;;3.87;1.30;;;1.20;99.90;;;;;;4952634;29;20047;-82
2022/04/01 03:54:01;;;;;;;5.30;1.60;;;1.20;99.90;;;;;;4951348;28;20082;-82
2022/04/01 03:56:35;;;;;;;3.67;1.47;;;1.20;99.90;;;;;;4951519;29;20141;-82
2022/04/01 03:59:02;;;;;;;;;;;1.20;99.90;;;;;;4954177;28;20409;-82
2022/04/01 04:01:28;;;;;;;2.13;1.30;;;1.20;99.90;;;;;;4952395;28;19928;-81
2022/04/01 04:03:56;;;;;;;2.37;1.50;;;1.20;99.90;;;;;;4952264;29;20122;-82
2022/04/01 04:06:22;;;;;;;3.43;1.33;;;1.20;99.90;;;;;;4952637;28;20043;-81
2022/04/01 04:08:51;;;;;;;5.17;1.37;;;1.30;99.90;;;;;;4952324;29;20460;-82
2022/04/01 04:11:22;;;;;;;3.20;1.50;;;1.20;99.90;;;;;;4953568;28;20432;-82
2022/04/01 04:13:49;;;;;;;3.80;1.30;;;1.20;99.90;;;;;;4952168;28;20050;-82
2022/04/01 04:16:29;;;;;;;2.13;1.20;;;1.60;99.90;;;;;;4953498;28;20050;-82
2022/04/01 04:19:45;;;;;;;3.97;1.40;;;1.20;99.90;;;;;;4952333;29;20497;-82
2022/04/01 04:22:15;;;;;;;3.10;1.23;;;1.20;99.90;;;;;;4965912;28;20182;-82
2022/04/01 04:25:10;;;;;;;4.30;1.43;;;1.20;99.90;;;;;;4952015;29;20047;-82
2022/04/01 04:27:39;;;;;;;4.60;1.20;;;1.20;99.90;;;;;;4952253;29;20122;-83
2022/04/01 04:30:08;;;;;;;4.23;1.20;;;1.20;99.90;;;;;;4953086;28;20506;-82
2022/04/01 04:32:39;;;;;;;4.93;1.50;;;1.20;99.90;;;;;;4951731;28;20043;-82
2022/04/01 04:35:08;;;;;;;5.10;1.10;;;1.20;99.90;;;;;;4952472;28;20054;-82
2022/04/01 04:37:36;;;;;;;2.40;1.30;;;1.20;99.90;;;;;;4951903;28;20184;-82
2022/04/01 04:40:03;;;;;;;3.77;1.70;;;1.30;99.90;;;;;;4951307;29;20051;-81
2022/04/01 04:42:31;;;;;;;4.33;1.37;;;1.30;99.90;;;;;;4951626;29;20039;-82
2022/04/01 04:44:58;;;;;;;5.40;1.50;;;1.30;99.90;;;;;;4953260;28;20082;-82
2022/04/01 04:47:29;;;;;;;3.47;1.27;;;1.30;99.90;;;;;;4952463;28;20126;-82
2022/04/01 04:49:58;;;;;;;4.10;1.40;;;1.30;99.90;;;;;;4955442;28;20047;-81
2022/04/01 04:52:31;;;;;;;3.90;1.33;;;1.30;99.90;;;;;;4955782;28;20043;-82
2022/04/01 04:54:58;;;;;;;3.83;1.70;;;1.30;99.90;;;;;;4956741;28;20094;-81
2022/04/01 04:57:26;;;;;;;3.47;1.43;;;1.30;99.90;;;;;;4957157;28;20065;-81
2022/04/01 04:59:52;;;;;;;2.63;1.20;;;1.30;99.90;;;;;;4956004;29;20042;-81
2022/04/01 05:02:53;;;;;;;4.27;1.33;;;1.30;99.90;;;;;;4957012;28;20047;-81
2022/04/01 05:05:25;;;;;;;2.87;1.30;;;1.30;99.90;;;;;;4955387;28;20047;-81
2022/04/01 05:08:10;;;;;;;4.37;1.40;;;1.30;99.90;;;;;;4956792;28;20427;-82
2022/04/01 05:10:58;;;;;;;4.23;1.43;;;1.30;99.90;;;;;;4955893;28;20071;-82
2022/04/01 05:13:42;;;;;;;4.07;1.60;;;1.30;99.90;;;;;;4955555;28;20050;-81
2022/04/01 05:16:17;;;;;;;2.72;1.35;;;1.40;99.90;;;;;;4955282;29;20051;-82
2022/04/01 05:18:54;;;;;;;2.93;1.40;;;1.30;99.90;;;;;;4955261;29;20042;-82
2022/04/01 05:21:23;;;;;;;5.20;1.40;;;1.40;99.90;;;;;;4956697;28;20408;-82
2022/04/01 05:24:05;;;;;;;5.10;1.40;;;1.30;99.90;;;;;;4954900;29;20070;-82
2022/04/01 05:26:40;;;;;;;2.27;1.10;;;1.30;99.90;;;;;;4955090;28;20058;-82
2022/04/01 05:29:18;;;;;;;3.70;1.37;;;1.30;99.90;;;;;;4957626;28;20043;-82
2022/04/01 05:31:51;;;;;;;2.60;1.20;;;1.30;99.90;;;;;;4975807;28;20054;-83
2022/04/01 05:34:31;;;;;;;2.63;1.20;;;1.40;99.90;;;;;;4973849;28;20476;-82
2022/04/01 05:36:57;;;;;;;2.30;1.20;;;1.30;99.90;;;;;;4973682;28;20342;-82
2022/04/01 05:39:28;;;;;;;4.77;2.13;;;1.40;99.90;;;;;;4973232;28;20126;-83
2022/04/01 05:41:54;;;;;;;4.30;1.50;;;1.40;99.90;;;;;;4973738;28;20046;-83
2022/04/01 05:44:21;;;;;;;3.10;1.60;;;1.40;99.90;;;;;;4974002;28;20042;-83
2022/04/01 05:46:49;;;;;;;3.33;1.30;;;1.40;99.90;;;;;;4975302;28;20432;-82
2022/04/01 05:49:16;;;;;;;5.20;2.07;;;1.40;99.90;;;;;;4975286;28;20405;-83
2022/04/01 05:51:42;;;;;;;3.60;1.10;;;1.40;99.90;;;;;;4975145;28;20038;-83
2022/04/01 05:54:09;;;;;;;4.13;1.50;;;1.40;99.90;;;;;;4973793;28;20513;-83
2022/04/01 05:56:37;;;;;;;6.07;1.80;;;1.40;99.90;;;;;;4973528;28;20490;-83
2022/04/01 05:59:03;;;;;;;2.47;1.73;;;1.50;99.90;;;;;;4975412;28;20113;-82
2022/04/01 06:01:31;;;;;;;3.43;1.60;;;1.50;99.90;;;;;;4972920;28;20174;-82
2022/04/01 06:04:34;;;;;;;3.43;1.50;;;1.50;99.90;;;;;;4974926;28;20107;-82
2022/04/01 06:07:29;;;;;;;2.90;1.40;;;1.50;99.90;;;;;;4972949;28;20053;-83
2022/04/01 06:10:09;;;;;;;6.63;2.63;;;1.50;99.90;;;;;;4973858;28;20448;-83
2022/04/01 06:12:40;;;;;;;3.83;1.33;;;1.60;99.90;;;;;;4975245;28;20035;-82
2022/04/01 06:15:21;;;;;;;3.83;1.37;;;1.60;99.90;;;;;;4974705;28;20513;-82
2022/04/01 06:18:01;;;;;;;6.50;1.40;;;1.60;99.90;;;;;;4974943;28;20108;-82
2022/04/01 06:20:30;;;;;;;2.60;1.37;;;1.60;99.90;;;;;;4973702;28;20043;-82
2022/04/01 06:23:00;;;;;;;3.67;1.53;;;1.70;99.90;;;;;;4973130;28;20058;-82
2022/04/01 06:25:30;;;;;;;4.63;1.70;;;1.70;99.90;;;;;;4972791;28;20042;-83
2022/04/01 06:28:15;;;;;;;5.00;1.60;;;1.70;99.90;;;;;;4973297;28;20043;-82
2022/04/01 06:30:42;;;;;;;5.53;1.80;;;1.70;99.90;;;;;;4972773;28;20039;-83
2022/04/01 06:33:40;;;;;;;4.63;1.60;;;1.70;99.90;;;;;;4973068;28;20039;-83
2022/04/01 06:36:06;;;;;;;4.43;1.57;;;1.70;99.90;;;;;;4974191;28;20054;-83
2022/04/01 06:38:50;;;;;;;2.47;1.50;;;2.10;99.90;;;;;;4973603;28;20083;-82
2022/04/01 06:41:21;;;;;;;6.13;1.88;;;1.80;99.90;;;;;;4973331;28;20089;-82
2022/04/01 06:43:48;;;;;;;4.63;1.83;;;1.80;99.90;;;;;;4972932;28;20038;-82
2022/04/01 06:46:14;;;;;;;6.03;1.60;;;1.80;99.90;;;;;;4974957;28;20175;-81
2022/04/01 06:48:40;;;;;;;4.97;1.60;;;1.90;99.90;;;;;;4973079;28;20082;-81
2022/04/01 06:51:08;;;;;;;3.83;1.60;;;1.90;99.90;;;;;;4974297;28;20051;-82
2022/04/01 06:53:36;;;;;;;4.73;1.40;;;1.90;99.90;;;;;;4974129;28;20042;-82
2022/04/01 06:56:03;;;;;;;3.17;1.40;;;2.00;99.90;;;;;;4956665;28;20425;-81
2022/04/01 06:58:30;;;;;;;3.10;1.57;;;2.00;99.90;;;;;;4967942;28;20047;-83
2022/04/01 07:00:56;;;;;;;4.37;1.20;;;2.00;99.90;;;;;;4965573;28;20046;-82
2022/04/01 07:03:23;;;;;;;2.70;1.10;;;2.00;99.90;;;;;;4963886;28;20035;-84
2022/04/01 07:05:49;;;;;;;2.43;1.00;;;2.00;99.90;;;;;;4973350;28;20086;-82
2022/04/01 07:08:16;;;;;;;2.33;1.40;;;2.10;99.90;;;;;;4972384;28;20058;-83
2022/04/01 07:10:42;;;;;;;2.37;1.03;;;2.00;99.90;;;;;;4972029;28;20050;-82
2022/04/01 07:13:10;;;;;;;2.50;1.20;;;2.00;99.90;;;;;;4972505;28;20050;-84
2022/04/01 07:15:36;;;;;;;3.00;1.07;;;2.00;99.90;;;;;;4971599;28;20497;-83
2022/04/01 07:18:02;;;;;;;1.67;1.00;;;2.00;99.90;;;;;;4972675;28;20049;-82
2022/04/01 07:20:28;;;;;;;2.63;1.10;;;2.50;99.90;;;;;;4974354;28;20074;-85
2022/04/01 07:22:57;;;;;;;4.50;1.20;;;2.10;99.90;;;;;;4958648;28;20035;-84
2022/04/01 07:25:23;;;;;;;2.63;1.03;;;2.60;99.90;;;;;;4950573;28;20055;-81
2022/04/01 07:27:50;;;;;;;2.87;1.20;;;2.10;99.90;;;;;;4950904;28;20512;-83
2022/04/01 07:30:16;;;;;;;1.57;1.00;;;2.10;99.90;;;;;;4951460;28;20102;-83
2022/04/01 07:32:42;;;;;;;2.37;1.00;;;2.10;99.90;;;;;;4952630;28;20035;-83
2022/04/01 07:35:10;;;;;;;2.77;1.00;;;2.50;99.90;;;;;;4964882;28;20544;-83
2022/04/01 07:37:36;;;;;;;2.47;1.10;;;2.10;99.90;;;;;;4955820;28;20032;-85
2022/04/01 07:40:03;;;;;;;2.97;1.40;;;2.10;99.90;;;;;;4954654;28;20050;-83
2022/04/01 07:42:29;;;;;;;2.70;1.20;;;2.10;99.90;;;;;;4948921;28;20039;-82
2022/04/01 07:44:55;;;;;;;2.10;1.17;;;2.10;99.90;;;;;;4953468;28;20055;-82
2022/04/01 07:47:21;;;;;;;4.30;1.10;;;2.20;99.90;;;;;;4952532;28;20074;-81
2022/04/01 07:49:48;;;;;;;4.03;1.47;;;2.20;99.90;;;;;;4952116;28;20083;-83
2022/04/01 07:52:16;;;;;;;5.10;1.30;;;2.20;99.90;;;;;;4950970;28;20062;-82
2022/04/01 07:54:43;;;;;;;5.20;1.70;;;2.10;99.90;;;;;;4952683;28;20062;-84
2022/04/01 07:57:09;;;;;;;4.50;1.40;;;2.10;99.90;;;;;;4954322;28;20053;-80
2022/04/01 07:59:35;;;;;;;2.80;1.43;;;2.40;99.90;;;;;;4965663;28;20039;-81
2022/04/01 08:02:02;;;;;;;3.47;1.43;;;2.10;99.90;;;;;;4972587;28;20096;-81
2022/04/01 08:04:27;;;;;;;5.53;1.40;;;2.10;99.90;;;;;;4963382;28;20511;-83
2022/04/01 08:06:57;;;;;;;3.37;1.53;;;2.10;99.90;;;;;;4951850;28;20221;-80
2022/04/01 08:09:24;;;;;;;3.27;1.60;;;2.10;99.90;;;;;;4966414;28;20089;-81
2022/04/01 08:11:52;;;;;;;3.67;1.50;;;2.10;99.90;;;;;;4971227;28;20051;-81
2022/04/01 08:14:17;;;;;;;7.77;1.73;;;2.00;99.90;;;;;;4971253;28;20125;-81
2022/04/01 08:16:44;;;;;;;3.70;1.90;;;2.00;99.90;;;;;;4971800;28;20125;-80
2022/04/01 08:19:10;;;;;;;3.23;1.70;;;2.00;99.90;;;;;;4971475;28;20047;-80
2022/04/01 08:21:35;;;;;;;4.53;1.53;;;2.00;99.90;;;;;;4971771;28;20174;-81
2022/04/01 08:24:01;;;;;;;3.63;1.40;;;2.00;99.90;;;;;;4975589;28;20047;-80
2022/04/01 08:26:28;;;;;;;3.80;1.60;;;2.10;99.90;;;;;;4978377;28;20061;-80
2022/04/01 08:28:53;;;;;;;4.30;1.80;;;2.20;99.90;;;;;;4980821;28;20064;-81
2022/04/01 08:31:20;;;;;;;6.07;1.63;;;2.30;99.90;;;;;;4977941;28;20038;-80
2022/04/01 08:33:46;;;;;;;4.03;1.77;;;2.80;99.90;;;;;;4977861;28;20102;-81
2022/04/01 08:36:12;;;;;;;2.93;1.60;;;2.40;99.90;;;;;;4973607;28;20502;-81
2022/04/01 08:38:38;;;;;;;3.37;1.80;;;2.50;99.90;;;;;;4958889;28;20062;-81
2022/04/01 08:41:05;;;;;;;3.43;1.70;;;2.60;99.90;;;;;;4959856;28;20055;-81
2022/04/01 08:43:36;;;;;;;6.87;1.80;;;2.60;99.90;;;;;;4959568;28;20089;-81
2022/04/01 08:46:05;;;;;;;3.57;1.80;;;2.60;99.90;;;;;;4960194;28;20464;-81
2022/04/01 08:48:31;;;;;;;4.27;1.80;;;2.70;99.90;;;;;;4960675;28;20401;-83
2022/04/01 08:50:57;;;;;;;5.23;2.00;;;2.70;99.90;;;;;;4958200;28;20070;-81
2022/04/01 08:53:23;;;;;;;3.97;1.73;;;3.10;99.90;;;;;;4973834;28;20047;-80
2022/04/01 08:55:52;;;;;;;3.47;1.57;;;2.80;99.90;;;;;;4957553;28;20048;-80
2022/04/01 08:58:19;;;;;;;3.97;1.83;;;2.80;99.90;;;;;;4958402;28;20055;-81
2022/04/01 09:00:46;;;;;;;3.80;1.73;;;2.80;99.90;;;;;;4957985;28;20039;-80
2022/04/01 09:03:14;;;;;;;2.30;1.50;;;2.80;99.90;;;;;;4958925;28;20050;-81
2022/04/01 09:05:46;;;;;;;3.37;1.53;;;3.00;99.90;;;;;;4973861;28;20519;-80
2022/04/01 09:08:16;;;;;;;3.87;1.80;;;2.90;99.90;;;;;;4973586;28;20043;-81
2022/04/01 09:10:51;;;;;;;4.23;1.87;;;2.90;99.90;;;;;;4958619;28;20042;-80
2022/04/01 09:13:18;;;;;;;6.83;1.90;;;2.90;99.90;;;;;;4962841;28;20062;-84
2022/04/01 09:15:44;;;;;;;4.90;1.90;;;3.00;99.90;;;;;;4961714;28;20075;-80
2022/04/01 09:18:10;;;;;;;6.10;2.10;;;3.00;99.90;;;;;;4966505;28;20070;-80
2022/04/01 09:20:44;;;;;;;4.03;2.20;;;3.20;99.90;;;;;;4979820;28;20045;-80
2022/04/01 09:23:10;;;;;;;4.93;2.55;;;3.00;99.90;;;;;;4978307;28;20567;-80
2022/04/01 09:25:36;;;;;;;4.50;2.33;;;3.10;99.90;;;;;;4976592;28;20035;-80
2022/04/01 09:28:01;;;;;;;3.20;2.17;;;3.30;99.90;;;;;;4965568;28;20051;-79
2022/04/01 09:30:30;;;;;;;4.50;2.40;;;3.50;99.90;;;;;;4957999;28;20047;-80
2022/04/01 09:33:01;;;;;;;4.57;2.33;;;3.20;99.90;;;;;;4975504;28;20046;-80
2022/04/01 09:35:30;;;;;;;4.10;2.20;;;3.60;99.90;;;;;;4975196;28;20537;-80
2022/04/01 09:38:09;;;;;;;4.17;2.37;;;3.40;99.90;;;;;;4970338;28;20438;-80
2022/04/01 09:40:35;;;;;;;5.18;2.47;;;3.70;99.90;;;;;;4965028;28;20043;-81
2022/04/01 09:43:01;;;;;;;5.33;2.30;;;3.50;99.90;;;;;;4975643;28;20069;-80
2022/04/01 09:45:35;;;;;;;5.90;2.23;;;3.60;99.90;;;;;;4975962;28;20042;-81
2022/04/01 09:48:10;;;;;;;4.20;2.45;;;3.70;99.90;;;;;;4974804;28;20058;-80
2022/04/01 09:50:41;;;;;;;5.35;2.53;;;3.70;99.90;;;;;;4974164;28;20505;-80
2022/04/01 09:53:15;;;;;;;5.47;2.15;;;3.80;99.90;;;;;;4973920;28;20051;-81
2022/04/01 09:55:45;;;;;;;;;;;3.90;99.90;;;;;;4975457;28;20092;-81
2022/04/01 09:58:11;;;;;;;5.38;2.50;;;3.80;99.90;;;;;;4974405;28;20292;-82
2022/04/01 10:00:40;;;;;;;3.80;2.30;;;4.00;99.90;;;;;;4975140;28;20047;-82
2022/04/01 10:03:07;;;;;;;4.68;2.50;;;4.00;99.90;;;;;;4974763;28;20089;-82
2022/04/01 10:05:35;;;;;;;4.78;2.40;;;4.40;99.90;;;;;;4973480;28;20058;-81
2022/04/01 10:08:03;;;;;;;7.03;2.35;;;4.20;99.90;;;;;;4975056;28;20378;-81
2022/04/01 10:10:30;;;;;;;4.40;2.70;;;4.20;99.90;;;;;;4975300;28;20401;-81
2022/04/01 10:13:05;;;;;;;4.57;2.40;;;4.50;99.90;;;;;;4975511;28;20512;-82
2022/04/01 10:15:32;;;;;;;4.43;2.40;;;4.50;99.90;;;;;;4972775;28;20043;-82
2022/04/01 10:17:59;;;;;;;4.22;2.40;;;4.70;99.90;;;;;;4969386;28;20109;-81
2022/04/01 10:20:35;;;;;;;3.72;2.30;;;4.70;99.90;;;;;;4972966;28;20754;-81
2022/04/01 10:23:12;;;;;;;3.92;2.30;;;4.90;99.90;;;;;;4974667;28;20098;-81
2022/04/01 10:26:05;;;;;;;6.90;2.47;;;5.00;99.90;;;;;;4974488;28;20121;-81
2022/04/01 10:28:31;;;;;;;6.35;2.28;;;5.00;99.90;;;;;;4974048;28;20066;-82
2022/04/01 10:31:01;;;;;;;6.57;2.40;;;5.10;99.90;;;;;;4974686;28;20046;-82
2022/04/01 10:33:36;;;;;;;4.90;2.20;;;5.20;99.90;;;;;;4973133;28;20105;-83
2022/04/01 10:36:21;;;;;;;3.13;2.17;;;5.20;99.90;;;;;;4973150;28;20051;-83
2022/04/01 10:38:48;;;;;;;3.92;2.25;;;5.30;99.90;;;;;;4973012;28;20138;-83
2022/04/01 10:41:15;;;;;;;5.95;2.15;;;5.40;99.90;;;;;;4973457;28;20460;-82
2022/04/01 10:43:44;;;;;;;6.13;2.30;;;5.40;99.90;;;;;;4962923;28;20524;-83
2022/04/01 10:46:14;;;;;;;4.07;2.30;;;5.40;99.90;;;;;;4951566;28;20046;-83
2022/04/01 10:52:22;;;;;;;3.38;1.98;;;5.60;99.90;;;;;;4949192;28;20050;-83
2022/04/01 10:55:07;;;;;;;7.45;2.42;;;5.70;99.90;;;;;;4951591;28;20782;-82
2022/04/01 10:57:44;;;;;;;6.32;2.25;;;5.90;99.90;;;;;;4966340;28;20532;-83
2022/04/01 11:00:15;;;;;;;6.20;2.20;;;6.00;99.90;;;;;;4967660;28;20093;-83
2022/04/01 11:02:43;;;;;;;4.05;2.05;;;6.00;99.90;;;;;;4970499;28;20038;-85
2022/04/01 11:05:22;;;;;;;4.13;2.20;;;6.00;99.90;;;;;;4970989;28;20058;-83
2022/04/01 11:08:20;;;;;;;3.50;2.30;;;5.90;99.90;;;;;;4971662;28;20050;-84
2022/04/01 11:11:06;;;;;;;3.38;2.10;;;5.80;99.90;;;;;;4971137;28;20046;-83
2022/04/01 11:13:33;;;;;;;3.75;2.25;;;5.60;99.90;;;;;;4972682;28;20042;-84
2022/04/01 11:16:21;;;;;;;5.95;2.20;;;5.60;99.90;;;;;;4972342;28;20043;-84
2022/04/01 11:19:16;;;;;;;4.90;2.00;;;5.70;99.90;;;;;;4973609;28;20043;-83
2022/04/01 11:21:47;;;;;;;3.92;2.40;;;5.70;99.90;;;;;;4973594;28;20043;-84
2022/04/01 11:24:28;;;;;;;4.25;2.25;;;5.80;99.90;;;;;;4972071;28;20042;-84
2022/04/01 11:26:53;;;;;;;5.55;2.30;;;5.80;99.90;;;;;;4972891;28;20063;-84
2022/04/01 11:29:21;;;;;;;4.22;2.30;;;5.90;99.90;;;;;;4968056;28;20054;-84
2022/04/01 11:31:47;;;;;;;4.82;2.42;;;6.00;99.90;;;;;;4955065;28;20043;-84
2022/04/01 11:34:13;;;;;;;4.15;2.50;;;6.10;99.90;;;;;;4952629;28;20524;-84
2022/04/01 11:36:41;;;;;;;3.20;1.98;;;6.20;99.90;;;;;;4952974;29;20039;-84
2022/04/01 11:39:09;;;;;;;3.83;2.00;;;6.20;99.90;;;;;;4961729;28;20386;-84
2022/04/01 11:41:51;;;;;;;4.97;2.60;;;6.20;99.90;;;;;;4971462;28;20049;-84
2022/04/01 11:44:17;;;;;;;5.80;2.00;;;6.30;99.90;;;;;;4971212;28;20309;-84
2022/04/01 11:46:50;;;;;;;5.15;1.98;;;6.40;99.90;;;;;;4972557;28;20650;-85
2022/04/01 11:49:16;;;;;;;3.95;1.70;;;6.50;99.90;;;;;;4972548;28;20497;-85
2022/04/01 11:51:42;;;;;;;4.85;2.10;;;6.50;99.90;;;;;;4968041;28;20038;-84
2022/04/01 11:54:10;;;;;;;4.65;1.80;;;6.30;99.90;;;;;;4970912;28;20416;-84
2022/04/01 11:56:36;;;;;;;3.90;2.05;;;6.20;99.90;;;;;;4970933;28;20536;-85
2022/04/01 11:59:04;;;;;;;3.10;1.70;;;6.00;99.90;;;;;;4968549;28;20038;-85
2022/04/01 12:01:54;;;;;;;4.10;1.50;;;5.90;99.90;;;;;;4969860;28;20129;-85
2022/04/01 12:04:38;;;;;;;3.30;1.80;;;5.90;99.90;;;;;;4969422;28;20544;-85
2022/04/01 12:09:58;;;;;;;3.28;1.17;;;5.70;99.90;;;;;;4975952;28;20050;-84
2022/04/01 12:12:25;;;;;;;1.52;1.00;;;5.60;99.90;;;;;;4959861;28;20036;-86
2022/04/01 12:14:53;;;;;;;2.63;1.00;;;5.70;99.90;;;;;;4970252;28;20550;-84
2022/04/01 12:17:19;;;;;;;2.60;1.30;;;5.70;99.90;;;;;;4970726;28;20117;-86
2022/04/01 12:19:45;;;;;;;2.60;1.30;;;5.70;99.90;;;;;;4963634;28;20145;-85
2022/04/01 12:22:11;;;;;;;3.45;1.30;;;5.70;99.90;;;;;;4987246;28;20042;-86
2022/04/01 12:24:38;;;;;;;2.92;1.27;;;5.70;99.90;;;;;;4972631;28;20062;-86
2022/04/01 12:27:06;;;;;;;2.92;1.30;;;5.70;99.90;;;;;;4970372;28;20058;-85
2022/04/01 12:29:32;;;;;;;4.50;1.40;;;5.80;99.90;;;;;;4964214;28;20059;-85
2022/04/01 12:32:01;;;;;;;3.38;1.42;;;5.70;99.90;;;;;;4986401;28;20102;-86
2022/04/01 12:34:27;;;;;;;4.85;1.45;;;5.60;99.90;;;;;;4972478;28;20102;-86
2022/04/01 12:37:05;;;;;;;3.15;1.20;;;5.50;99.90;;;;;;4971267;28;20049;-86
2022/04/01 12:39:33;;;;;;;2.17;1.30;;;5.40;99.90;;;;;;4972139;28;20043;-85
2022/04/01 12:42:10;;;;;;;5.00;1.60;;;5.40;99.90;;;;;;4987358;28;20150;-86
2022/04/01 12:44:39;;;;;;;3.45;1.50;;;5.30;99.90;;;;;;4972055;28;20039;-85
2022/04/01 12:47:05;;;;;;;7.03;1.95;;;5.30;99.90;;;;;;4971167;28;20050;-85
2022/04/01 12:49:33;;;;;;;3.55;1.88;;;5.20;99.90;;;;;;4967443;28;20045;-85
2022/04/01 12:52:00;;;;;;;4.28;1.83;;;5.20;99.90;;;;;;4953185;28;20091;-85
2022/04/01 12:54:33;;;;;;;5.38;1.88;;;5.30;99.90;;;;;;4951511;28;20054;-85
2022/04/01 12:57:08;;;;;;;3.42;1.63;;;5.40;99.90;;;;;;4951846;28;20493;-85
2022/04/01 12:59:35;;;;;;;3.88;1.60;;;5.40;99.90;;;;;;4953261;28;20403;-85
2022/04/01 13:02:03;;;;;;;2.50;1.30;;;5.40;99.90;;;;;;4953097;28;20039;-85
2022/04/01 13:04:36;;;;;;;3.25;1.80;;;5.40;99.90;;;;;;4952825;28;20383;-84
2022/04/01 13:07:05;;;;;;;6.32;1.48;;;5.50;99.90;;;;;;4953077;28;20449;-85
2022/04/01 13:09:31;;;;;;;3.17;1.40;;;5.50;99.90;;;;;;4952867;28;20120;-85
2022/04/01 13:11:58;;;;;;;4.05;1.45;;;5.50;99.90;;;;;;4956851;28;20054;-85
2022/04/01 13:14:28;;;;;;;4.90;1.50;;;5.50;99.90;;;;;;4956459;28;20409;-85
2022/04/01 13:16:56;;;;;;;3.63;1.70;;;5.70;99.90;;;;;;4955413;29;20118;-85
2022/04/01 13:19:23;;;;;;;3.05;1.50;;;5.90;99.90;;;;;;4954839;28;20043;-85
2022/04/01 13:21:50;;;;;;;3.33;1.40;;;5.90;99.90;;;;;;4955239;29;20043;-85